Time;durP1;ratioP1;P1;durP2;ratioP2;P2;SDS_P1;SDS_P2;PMS_P1;PMS_P2;Temp;Humidity;BMP_temperature;BMP_pressure;BME280_temperature;BME280_humidity;BME280_pressure;Samples;Min_cycle;Max_cycle;Signal;HPM_P1;HPM_P2
2021/01/24 00:02:11;;;;;;;13.82;6.82;;;4.40;99.90;;;;;;4862494;29;20025;-84
2021/01/24 00:04:37;;;;;;;15.30;7.38;;;4.40;99.90;;;;;;4845850;29;20479;-85
2021/01/24 00:07:03;;;;;;;12.63;6.63;;;4.30;99.90;;;;;;4869241;29;20033;-84
2021/01/24 00:09:29;;;;;;;19.20;7.88;;;4.30;99.90;;;;;;4863980;29;20021;-83
2021/01/24 00:11:54;;;;;;;15.90;7.28;;;4.20;99.90;;;;;;4863867;29;20032;-84
2021/01/24 00:14:20;;;;;;;14.68;7.05;;;4.20;99.90;;;;;;4855010;29;20033;-85
2021/01/24 00:16:45;;;;;;;14.10;6.72;;;4.30;99.90;;;;;;4863376;29;20030;-83
2021/01/24 00:19:11;;;;;;;12.38;5.75;;;4.20;99.90;;;;;;4848075;29;20033;-84
2021/01/24 00:21:37;;;;;;;10.43;6.18;;;4.20;99.90;;;;;;4872189;29;20022;-83
2021/01/24 00:24:04;;;;;;;11.93;6.63;;;4.20;99.90;;;;;;4864313;29;20025;-84
2021/01/24 00:26:30;;;;;;;12.82;5.97;;;4.20;99.90;;;;;;4868704;29;20045;-83
2021/01/24 00:28:55;;;;;;;14.85;6.43;;;4.20;99.90;;;;;;4863189;29;20108;-84
2021/01/24 00:31:21;;;;;;;9.90;5.70;;;4.20;99.90;;;;;;4864142;29;20073;-84
2021/01/24 00:33:47;;;;;;;17.80;6.05;;;4.10;99.90;;;;;;4862266;29;20040;-84
2021/01/24 00:36:14;;;;;;;13.52;5.57;;;4.10;99.90;;;;;;4847322;29;20443;-84
2021/01/24 00:38:40;;;;;;;11.02;6.97;;;4.10;99.90;;;;;;4863448;29;20045;-84
2021/01/24 00:41:05;;;;;;;10.57;5.75;;;4.10;99.90;;;;;;4863132;29;20029;-85
2021/01/24 00:43:32;;;;;;;19.60;7.07;;;4.10;99.90;;;;;;4862536;29;20116;-83
2021/01/24 00:45:58;;;;;;;8.70;5.45;;;4.00;99.90;;;;;;4863453;29;20383;-84
2021/01/24 00:48:24;;;;;;;14.88;5.13;;;3.90;99.90;;;;;;4861781;29;20042;-84
2021/01/24 00:50:53;;;;;;;12.35;5.53;;;3.90;99.90;;;;;;4846901;29;20041;-84
2021/01/24 00:53:18;;;;;;;;;;;3.90;99.90;;;;;;4860862;29;20044;-83
2021/01/24 00:55:44;;;;;;;10.55;4.93;;;3.90;99.90;;;;;;4861353;29;20002;-83
2021/01/24 00:58:10;;;;;;;20.30;6.32;;;3.90;99.90;;;;;;4862353;29;20034;-84
2021/01/24 01:00:36;;;;;;;10.27;4.90;;;3.90;99.90;;;;;;4858494;29;20082;-83
2021/01/24 01:03:02;;;;;;;15.60;5.97;;;3.90;99.90;;;;;;4860899;29;20034;-84
2021/01/24 01:05:27;;;;;;;14.27;5.78;;;4.00;99.90;;;;;;4843898;29;20058;-83
2021/01/24 01:07:53;;;;;;;14.10;5.53;;;4.00;99.90;;;;;;4845131;29;20044;-83
2021/01/24 01:10:18;;;;;;;11.85;5.88;;;4.10;99.90;;;;;;4858873;29;20038;-83
2021/01/24 01:12:44;;;;;;;13.13;5.60;;;4.00;99.90;;;;;;4859051;29;20384;-83
2021/01/24 01:15:10;;;;;;;14.50;6.35;;;4.00;99.90;;;;;;4845226;29;20030;-83
2021/01/24 01:17:36;;;;;;;13.10;5.57;;;3.90;99.90;;;;;;4845170;29;20118;-83
2021/01/24 01:20:02;;;;;;;10.13;4.75;;;3.90;99.90;;;;;;4845040;29;20052;-83
2021/01/24 01:22:28;;;;;;;10.35;6.13;;;4.00;99.90;;;;;;4859463;29;20101;-83
2021/01/24 01:24:53;;;;;;;19.65;5.07;;;4.00;99.90;;;;;;4845103;29;20483;-83
2021/01/24 01:27:19;;;;;;;13.93;6.38;;;4.00;99.90;;;;;;4859204;29;20030;-83
2021/01/24 01:29:45;;;;;;;11.85;5.63;;;4.10;99.90;;;;;;4845195;29;20452;-83
2021/01/24 01:32:10;;;;;;;11.95;5.68;;;4.10;99.90;;;;;;4858515;29;20041;-83
2021/01/24 01:34:36;;;;;;;12.57;4.93;;;4.10;99.90;;;;;;4844471;29;20399;-84
2021/01/24 01:37:01;;;;;;;8.23;4.80;;;4.10;99.90;;;;;;4858305;29;20038;-83
2021/01/24 01:39:27;;;;;;;10.75;5.25;;;4.10;99.90;;;;;;4859453;29;20042;-84
2021/01/24 01:41:53;;;;;;;15.60;7.10;;;4.10;99.90;;;;;;4858417;29;20040;-84
2021/01/24 01:44:18;;;;;;;14.30;5.97;;;4.10;99.90;;;;;;4845119;29;20022;-84
2021/01/24 01:46:44;;;;;;;12.82;5.13;;;4.10;99.90;;;;;;4856054;29;20067;-83
2021/01/24 01:49:10;;;;;;;12.68;5.95;;;4.10;99.90;;;;;;4859047;29;20086;-84
2021/01/24 01:51:35;;;;;;;10.32;6.22;;;4.10;99.90;;;;;;4843090;29;20038;-84
2021/01/24 01:54:01;;;;;;;17.23;5.82;;;4.20;99.90;;;;;;4858423;29;20034;-84
2021/01/24 01:56:27;;;;;;;14.57;5.28;;;4.10;99.90;;;;;;4841752;29;20518;-84
2021/01/24 01:58:52;;;;;;;14.43;6.30;;;4.10;99.90;;;;;;4828316;29;20037;-84
2021/01/24 02:01:50;;;;;;;12.88;5.15;;;4.00;99.90;;;;;;4843663;29;20046;-84
2021/01/24 02:04:37;;;;;;;15.00;6.13;;;4.00;99.90;;;;;;4855172;29;20069;-83
2021/01/24 02:07:13;;;;;;;16.40;5.85;;;4.00;99.90;;;;;;4857470;29;20392;-83
2021/01/24 02:09:46;;;;;;;10.73;5.47;;;4.00;99.90;;;;;;4849156;29;20037;-84
2021/01/24 02:12:22;;;;;;;10.40;5.68;;;4.00;99.90;;;;;;4857538;29;20030;-84
2021/01/24 02:15:20;;;;;;;12.93;5.50;;;4.10;99.90;;;;;;4858285;29;20034;-84
2021/01/24 02:18:07;;;;;;;13.27;5.38;;;4.10;99.90;;;;;;4857088;29;20042;-83
2021/01/24 02:20:45;;;;;;;10.57;5.03;;;4.10;99.90;;;;;;4844316;29;20131;-83
2021/01/24 02:23:19;;;;;;;15.90;5.47;;;4.10;99.90;;;;;;4844515;29;20029;-83
2021/01/24 02:25:54;;;;;;;9.60;5.18;;;4.00;99.90;;;;;;4837702;29;20109;-84
2021/01/24 02:28:32;;;;;;;10.05;5.30;;;4.00;99.90;;;;;;4843607;29;20544;-84
2021/01/24 02:31:00;;;;;;;9.10;5.47;;;4.00;99.90;;;;;;4857994;29;20026;-82
2021/01/24 02:33:29;;;;;;;11.20;5.20;;;4.00;99.90;;;;;;4842740;29;20062;-83
2021/01/24 02:35:58;;;;;;;9.88;4.28;;;4.00;99.90;;;;;;4857602;29;20033;-84
2021/01/24 02:38:26;;;;;;;12.95;5.47;;;4.10;99.90;;;;;;4858077;29;20034;-84
2021/01/24 02:40:52;;;;;;;10.33;5.60;;;4.10;99.90;;;;;;4844347;29;20041;-83
2021/01/24 02:43:19;;;;;;;11.45;5.97;;;4.00;99.90;;;;;;4857862;29;20274;-84
2021/01/24 02:45:49;;;;;;;11.27;4.93;;;4.00;99.90;;;;;;4857397;29;20018;-84
2021/01/24 02:48:17;;;;;;;8.98;6.03;;;4.00;99.90;;;;;;4843845;29;20046;-84
2021/01/24 02:50:45;;;;;;;14.40;5.03;;;4.00;99.90;;;;;;4857825;29;20026;-83
2021/01/24 02:53:11;;;;;;;13.18;4.68;;;4.00;99.90;;;;;;4843420;29;20125;-84
2021/01/24 02:55:37;;;;;;;8.65;4.45;;;3.90;99.90;;;;;;4841805;29;20395;-84
2021/01/24 02:58:03;;;;;;;11.27;4.85;;;3.90;99.90;;;;;;4843473;29;20034;-84
2021/01/24 03:00:30;;;;;;;9.07;4.35;;;3.80;99.90;;;;;;4843588;29;20403;-84
2021/01/24 03:02:56;;;;;;;13.25;4.22;;;3.80;99.90;;;;;;4843330;29;20030;-84
2021/01/24 03:05:23;;;;;;;11.52;4.18;;;3.80;99.90;;;;;;4857548;29;20415;-84
2021/01/24 03:07:49;;;;;;;10.75;4.47;;;3.80;99.90;;;;;;4843864;29;20034;-84
2021/01/24 03:10:16;;;;;;;9.80;4.10;;;3.90;99.90;;;;;;4857107;29;20058;-84
2021/01/24 03:12:58;;;;;;;11.02;4.47;;;3.80;99.90;;;;;;4856303;29;20037;-83
2021/01/24 03:15:25;;;;;;;9.73;4.63;;;3.90;99.90;;;;;;4843017;29;20542;-84
2021/01/24 03:17:53;;;;;;;8.97;3.93;;;3.90;99.90;;;;;;4857392;29;20125;-83
2021/01/24 03:20:20;;;;;;;9.32;4.20;;;3.90;99.90;;;;;;4860318;29;20159;-84
2021/01/24 03:22:47;;;;;;;6.55;3.70;;;3.90;99.90;;;;;;4847085;29;20543;-83
2021/01/24 03:25:15;;;;;;;8.30;4.57;;;3.90;99.90;;;;;;4860698;29;20051;-84
2021/01/24 03:27:41;;;;;;;6.78;3.88;;;3.90;99.90;;;;;;4845915;29;20106;-83
2021/01/24 03:30:07;;;;;;;11.13;4.00;;;3.90;99.90;;;;;;4860323;29;20038;-84
2021/01/24 03:32:33;;;;;;;7.82;4.10;;;3.90;99.90;;;;;;4860158;29;20022;-83
2021/01/24 03:34:58;;;;;;;9.18;3.88;;;3.90;99.90;;;;;;4861689;29;20066;-83
2021/01/24 03:37:24;;;;;;;7.57;4.03;;;3.90;99.90;;;;;;4846929;29;20091;-83
2021/01/24 03:39:50;;;;;;;7.68;4.07;;;4.00;99.90;;;;;;4846323;29;20105;-84
2021/01/24 03:42:17;;;;;;;6.45;3.58;;;4.00;99.90;;;;;;4860932;29;20480;-81
2021/01/24 03:44:42;;;;;;;9.15;4.03;;;4.00;99.90;;;;;;4844368;29;20053;-83
2021/01/24 03:47:08;;;;;;;7.80;3.05;;;4.00;99.90;;;;;;4846689;29;20033;-83
2021/01/24 03:49:33;;;;;;;6.05;3.33;;;4.00;99.90;;;;;;4844209;29;20022;-83
2021/01/24 03:51:59;;;;;;;8.75;3.42;;;4.00;99.90;;;;;;4860343;29;20391;-83
2021/01/24 03:54:24;;;;;;;8.75;3.03;;;4.10;99.90;;;;;;4860515;29;20034;-83
2021/01/24 03:56:50;;;;;;;9.40;3.28;;;4.00;99.90;;;;;;4860907;29;20026;-83
2021/01/24 03:59:16;;;;;;;5.75;3.30;;;4.00;99.90;;;;;;4846397;29;20038;-85
2021/01/24 04:01:41;;;;;;;5.82;3.03;;;4.00;99.90;;;;;;4851621;29;20046;-82
2021/01/24 04:04:07;;;;;;;9.43;5.32;;;4.10;99.90;;;;;;4852180;29;20029;-83
2021/01/24 04:06:32;;;;;;;10.18;3.40;;;4.10;99.90;;;;;;4845044;29;20544;-83
2021/01/24 04:08:58;;;;;;;5.10;2.72;;;4.10;99.90;;;;;;4829568;29;20033;-83
2021/01/24 04:11:24;;;;;;;5.80;2.60;;;4.10;99.90;;;;;;4830713;29;20034;-84
2021/01/24 04:13:50;;;;;;;2.70;2.25;;;4.00;99.90;;;;;;4844770;29;20022;-84
2021/01/24 04:16:15;;;;;;;5.93;2.90;;;4.00;99.90;;;;;;4846482;29;20034;-83
2021/01/24 04:18:41;;;;;;;4.90;3.03;;;3.90;99.90;;;;;;4850543;29;20431;-83
2021/01/24 04:21:07;;;;;;;7.45;2.80;;;3.90;99.90;;;;;;4846439;29;20114;-83
2021/01/24 04:23:33;;;;;;;11.32;2.67;;;3.90;99.90;;;;;;4851557;29;20061;-83
2021/01/24 04:25:59;;;;;;;12.60;2.35;;;4.00;99.90;;;;;;4850988;29;20057;-83
2021/01/24 04:28:25;;;;;;;5.88;2.60;;;4.00;99.90;;;;;;4849147;29;20190;-83
2021/01/24 04:30:50;;;;;;;4.57;2.50;;;4.00;99.90;;;;;;4855152;29;20046;-83
2021/01/24 04:33:16;;;;;;;4.05;1.95;;;4.00;99.90;;;;;;4854873;29;20120;-83
2021/01/24 04:35:42;;;;;;;2.72;2.05;;;4.00;99.90;;;;;;4834636;29;20403;-83
2021/01/24 04:38:08;;;;;;;6.45;1.63;;;4.00;99.90;;;;;;4846744;29;20041;-84
2021/01/24 04:40:33;;;;;;;2.38;1.85;;;4.00;99.90;;;;;;4839512;29;20077;-84
2021/01/24 04:42:59;;;;;;;1.98;1.73;;;3.90;99.90;;;;;;4830564;29;20042;-84
2021/01/24 04:45:25;;;;;;;4.97;1.98;;;4.00;99.90;;;;;;4830737;29;20026;-84
2021/01/24 04:47:52;;;;;;;4.20;1.30;;;3.90;99.90;;;;;;4846148;29;20575;-84
2021/01/24 04:50:18;;;;;;;8.23;1.65;;;3.90;99.90;;;;;;4858576;29;20089;-83
2021/01/24 04:52:44;;;;;;;1.92;1.10;;;3.80;99.90;;;;;;4861617;29;20144;-83
2021/01/24 04:55:11;;;;;;;1.52;1.05;;;3.80;99.90;;;;;;4846879;29;20432;-83
2021/01/24 04:57:37;;;;;;;1.80;1.63;;;3.80;99.90;;;;;;4851672;29;20048;-84
2021/01/24 05:00:05;;;;;;;1.67;0.95;;;3.70;99.90;;;;;;4848371;29;20050;-84
2021/01/24 05:02:30;;;;;;;4.45;1.40;;;3.70;99.90;;;;;;4846930;29;20045;-83
2021/01/24 05:04:56;;;;;;;2.80;1.00;;;3.70;99.90;;;;;;4864454;29;20108;-84
2021/01/24 05:07:22;;;;;;;3.30;1.40;;;3.60;99.90;;;;;;4861735;29;20089;-83
2021/01/24 05:09:47;;;;;;;1.10;1.00;;;3.50;99.90;;;;;;4851063;29;20030;-83
2021/01/24 05:12:14;;;;;;;4.40;1.38;;;3.50;99.90;;;;;;4862492;29;20432;-83
2021/01/24 05:14:40;;;;;;;3.28;0.98;;;3.50;99.90;;;;;;4862222;29;20089;-83
2021/01/24 05:17:06;;;;;;;5.45;1.20;;;3.50;99.90;;;;;;4864270;29;20026;-83
2021/01/24 05:19:33;;;;;;;1.38;1.13;;;3.50;99.90;;;;;;4846694;29;20101;-83
2021/01/24 05:22:01;;;;;;;2.97;1.35;;;3.40;99.90;;;;;;4863523;29;20064;-83
2021/01/24 05:24:29;;;;;;;3.25;0.95;;;3.30;99.90;;;;;;4863409;29;20029;-83
2021/01/24 05:26:55;;;;;;;2.75;1.08;;;3.30;99.90;;;;;;4862684;29;20030;-83
2021/01/24 05:29:26;;;;;;;3.20;0.80;;;3.30;99.90;;;;;;4846642;29;20085;-83
2021/01/24 05:31:56;;;;;;;4.38;1.17;;;3.30;99.90;;;;;;4863247;29;20049;-82
2021/01/24 05:34:26;;;;;;;2.00;1.20;;;3.20;99.90;;;;;;4863200;29;20040;-83
2021/01/24 05:36:52;;;;;;;3.03;0.70;;;3.20;99.90;;;;;;4863006;29;20376;-83
2021/01/24 05:39:20;;;;;;;1.60;0.60;;;3.10;99.90;;;;;;4862253;29;20101;-81
2021/01/24 05:41:50;;;;;;;8.23;1.00;;;3.10;99.90;;;;;;4860203;29;20541;-82
2021/01/24 05:44:18;;;;;;;1.67;1.20;;;3.10;99.90;;;;;;4863685;29;20033;-82
2021/01/24 05:46:45;;;;;;;5.57;0.80;;;3.00;99.90;;;;;;4861810;29;20097;-82
2021/01/24 05:49:13;;;;;;;2.20;0.93;;;3.00;99.90;;;;;;4858605;29;20041;-82
2021/01/24 05:51:39;;;;;;;;;;;3.00;99.90;;;;;;4862348;29;20029;-82
2021/01/24 05:54:04;;;;;;;0.98;0.88;;;3.10;99.90;;;;;;4862836;29;19912;-82
2021/01/24 05:56:31;;;;;;;1.88;1.05;;;3.00;99.90;;;;;;4861832;29;20030;-82
2021/01/24 05:58:59;;;;;;;6.63;1.25;;;2.90;99.90;;;;;;4860444;29;20045;-82
2021/01/24 06:01:26;;;;;;;4.18;0.63;;;2.90;99.90;;;;;;4859863;29;20065;-83
2021/01/24 06:03:54;;;;;;;6.10;1.17;;;2.90;99.90;;;;;;4861550;29;20056;-82
2021/01/24 06:06:20;;;;;;;3.03;1.08;;;2.90;99.90;;;;;;4859627;29;20093;-83
2021/01/24 06:08:46;;;;;;;2.38;0.68;;;2.90;99.90;;;;;;4860929;29;20029;-83
2021/01/24 06:11:14;;;;;;;0.65;0.52;;;2.90;99.90;;;;;;4862184;29;20049;-83
2021/01/24 06:13:43;;;;;;;8.85;1.02;;;2.80;99.90;;;;;;4859958;29;20043;-83
2021/01/24 06:16:16;;;;;;;1.17;0.63;;;2.90;99.90;;;;;;4856427;29;20294;-84
2021/01/24 06:18:53;;;;;;;1.73;0.68;;;2.80;99.90;;;;;;4861907;29;20030;-84
2021/01/24 06:21:33;;;;;;;2.97;1.70;;;2.90;99.90;;;;;;4861893;29;20431;-83
2021/01/24 06:24:10;;;;;;;1.45;1.00;;;2.90;99.90;;;;;;4860281;29;20049;-83
2021/01/24 06:26:41;;;;;;;2.15;1.10;;;2.90;99.90;;;;;;4860418;29;20040;-83
2021/01/24 06:29:10;;;;;;;2.17;0.90;;;2.80;99.90;;;;;;4860614;29;20025;-83
2021/01/24 06:31:48;;;;;;;2.33;1.02;;;2.70;99.90;;;;;;4844700;29;20394;-83
2021/01/24 06:34:14;;;;;;;3.00;0.63;;;2.80;99.90;;;;;;4860659;29;20393;-84
2021/01/24 06:37:14;;;;;;;2.83;0.82;;;2.80;99.90;;;;;;4859962;29;20439;-84
2021/01/24 06:39:42;;;;;;;2.08;0.70;;;2.80;99.90;;;;;;4841178;29;20117;-83
2021/01/24 06:42:09;;;;;;;0.70;0.70;;;2.80;99.90;;;;;;4860346;29;20033;-83
2021/01/24 06:44:36;;;;;;;2.17;1.00;;;2.80;99.90;;;;;;4851791;29;20038;-83
2021/01/24 06:47:07;;;;;;;1.83;0.80;;;2.80;99.90;;;;;;4856005;29;20037;-83
2021/01/24 06:49:41;;;;;;;1.13;0.60;;;2.80;99.90;;;;;;4859855;29;20046;-84
2021/01/24 06:52:18;;;;;;;0.77;0.65;;;2.80;99.90;;;;;;4859642;29;20029;-83
2021/01/24 06:54:45;;;;;;;0.93;0.73;;;2.80;99.90;;;;;;4859976;29;20463;-83
2021/01/24 06:57:11;;;;;;;1.42;1.33;;;2.80;99.90;;;;;;4860016;29;20041;-83
2021/01/24 06:59:37;;;;;;;2.20;1.42;;;2.80;99.90;;;;;;4844350;29;20494;-82
2021/01/24 07:02:22;;;;;;;1.08;0.90;;;2.70;99.90;;;;;;4860826;29;20065;-84
2021/01/24 07:05:10;;;;;;;2.67;1.00;;;2.70;99.90;;;;;;4861143;29;20210;-84
2021/01/24 07:07:38;;;;;;;;;;;2.60;99.90;;;;;;4859756;29;20033;-83
2021/01/24 07:10:06;;;;;;;1.02;0.70;;;2.70;99.90;;;;;;4859362;29;20344;-84
2021/01/24 07:12:37;;;;;;;2.35;1.08;;;2.70;99.90;;;;;;4859852;29;20386;-84
2021/01/24 07:15:05;;;;;;;2.00;1.00;;;2.70;99.90;;;;;;4859034;29;20033;-84
2021/01/24 07:17:32;;;;;;;2.25;0.90;;;2.70;99.90;;;;;;4859370;29;20051;-84
2021/01/24 07:19:57;;;;;;;0.73;0.73;;;2.70;99.90;;;;;;4841558;29;20029;-84
2021/01/24 07:22:24;;;;;;;2.03;0.90;;;2.70;99.90;;;;;;4860749;29;20093;-84
2021/01/24 07:24:54;;;;;;;0.82;0.52;;;2.60;99.90;;;;;;4860646;29;20069;-83
2021/01/24 07:27:28;;;;;;;2.53;1.05;;;2.60;99.90;;;;;;4860826;29;20503;-83
2021/01/24 07:29:55;;;;;;;1.17;0.90;;;2.60;99.90;;;;;;4858763;29;20098;-84
2021/01/24 07:32:22;;;;;;;4.60;1.02;;;2.50;99.90;;;;;;4860837;29;20082;-83
2021/01/24 07:34:53;;;;;;;0.40;0.40;;;2.60;99.90;;;;;;4860398;29;20376;-84
2021/01/24 07:37:19;;;;;;;1.02;0.70;;;2.60;99.90;;;;;;4859338;29;20045;-84
2021/01/24 07:39:47;;;;;;;1.92;0.80;;;2.60;99.90;;;;;;4858304;29;20037;-84
2021/01/24 07:42:14;;;;;;;14.43;2.15;;;2.50;99.90;;;;;;4860557;29;20025;-84
2021/01/24 07:44:40;;;;;;;0.90;0.40;;;2.50;99.90;;;;;;4859825;29;20082;-83
2021/01/24 07:47:08;;;;;;;1.33;0.80;;;2.50;99.90;;;;;;4860079;29;20025;-84
2021/01/24 07:49:33;;;;;;;3.03;0.70;;;2.50;99.90;;;;;;4860478;29;20030;-84
2021/01/24 07:52:00;;;;;;;7.10;1.00;;;2.50;99.90;;;;;;4844652;29;20497;-85
2021/01/24 07:54:25;;;;;;;1.90;1.02;;;2.60;99.90;;;;;;4860176;29;20037;-84
2021/01/24 07:56:51;;;;;;;0.95;0.70;;;2.50;99.90;;;;;;4860052;29;20109;-83
2021/01/24 07:59:18;;;;;;;0.95;0.75;;;2.50;99.90;;;;;;4860570;29;20044;-83
2021/01/24 08:01:44;;;;;;;1.98;1.25;;;2.50;99.90;;;;;;4859759;29;20049;-83
2021/01/24 08:04:10;;;;;;;2.63;0.65;;;2.50;99.90;;;;;;4861561;29;20037;-84
2021/01/24 08:06:37;;;;;;;2.38;0.75;;;2.50;99.90;;;;;;4863065;29;20542;-84
2021/01/24 08:09:08;;;;;;;1.75;1.05;;;2.50;99.90;;;;;;4863497;29;20034;-84
2021/01/24 08:11:34;;;;;;;3.40;1.20;;;2.50;99.90;;;;;;4862651;29;20061;-84
2021/01/24 08:14:01;;;;;;;1.88;0.80;;;2.50;99.90;;;;;;4864039;29;20063;-84
2021/01/24 08:16:39;;;;;;;2.65;1.02;;;2.50;99.90;;;;;;4864300;29;20033;-84
2021/01/24 08:19:08;;;;;;;1.20;0.50;;;2.50;99.90;;;;;;4845270;29;20487;-85
2021/01/24 08:21:34;;;;;;;5.82;0.82;;;2.50;99.90;;;;;;4863079;29;20029;-84
2021/01/24 08:24:01;;;;;;;7.50;0.98;;;2.50;99.90;;;;;;4863524;29;20038;-84
2021/01/24 08:26:28;;;;;;;4.95;0.80;;;2.60;99.90;;;;;;4873583;29;20443;-85
2021/01/24 08:28:54;;;;;;;2.35;0.80;;;2.60;99.90;;;;;;4843524;29;20030;-85
2021/01/24 08:31:21;;;;;;;6.70;1.10;;;2.60;99.90;;;;;;4853763;29;20034;-84
2021/01/24 08:33:49;;;;;;;1.17;0.70;;;2.70;99.90;;;;;;4863871;29;20499;-84
2021/01/24 08:36:26;;;;;;;9.43;1.10;;;2.60;99.90;;;;;;4863489;29;20379;-84
2021/01/24 08:38:56;;;;;;;1.27;0.60;;;2.70;99.90;;;;;;4853504;29;20507;-84
2021/01/24 08:41:29;;;;;;;5.25;0.70;;;2.80;99.90;;;;;;4863192;29;20390;-84
2021/01/24 08:44:05;;;;;;;2.13;0.82;;;3.10;99.90;;;;;;4863160;29;20331;-84
2021/01/24 08:46:36;;;;;;;1.45;0.98;;;3.20;99.90;;;;;;4865509;29;20463;-83
2021/01/24 08:49:23;;;;;;;3.22;0.95;;;3.30;99.90;;;;;;4859194;29;20030;-84
2021/01/24 08:51:53;;;;;;;5.93;0.90;;;3.40;99.90;;;;;;4846776;29;20042;-84
2021/01/24 08:54:33;;;;;;;2.35;0.50;;;3.40;99.90;;;;;;4863527;29;20500;-85
2021/01/24 08:57:14;;;;;;;2.30;1.17;;;3.50;99.90;;;;;;4863831;29;20062;-85
2021/01/24 08:59:48;;;;;;;1.98;0.90;;;3.60;99.90;;;;;;4853787;29;20057;-84
2021/01/24 09:02:14;;;;;;;1.42;1.33;;;3.60;99.90;;;;;;4863855;29;20055;-84
2021/01/24 09:04:46;;;;;;;3.10;1.00;;;3.70;99.90;;;;;;4864125;29;20041;-84
2021/01/24 09:07:14;;;;;;;2.70;0.70;;;3.80;99.90;;;;;;4849546;29;20037;-84
2021/01/24 09:09:43;;;;;;;5.57;1.17;;;3.90;99.90;;;;;;4862745;29;20030;-85
2021/01/24 09:12:19;;;;;;;1.00;0.75;;;4.00;99.90;;;;;;4862911;29;20038;-86
2021/01/24 09:14:46;;;;;;;4.78;0.88;;;4.10;99.90;;;;;;4864369;29;20059;-86
2021/01/24 09:17:16;;;;;;;0.85;0.65;;;4.10;99.90;;;;;;4865768;29;20049;-86
2021/01/24 09:19:46;;;;;;;2.42;0.88;;;4.00;99.90;;;;;;4870144;29;20113;-85
2021/01/24 09:22:15;;;;;;;2.25;0.70;;;4.00;99.90;;;;;;4863416;29;20116;-85
2021/01/24 09:24:42;;;;;;;1.30;0.80;;;4.00;99.90;;;;;;4868526;29;20496;-85
2021/01/24 09:27:10;;;;;;;5.03;0.88;;;4.00;99.90;;;;;;4861685;29;20418;-85
2021/01/24 09:29:36;;;;;;;1.40;0.60;;;3.90;99.90;;;;;;4866605;29;20105;-85
2021/01/24 09:32:03;;;;;;;2.75;1.15;;;3.90;99.90;;;;;;4866956;29;20561;-85
2021/01/24 09:34:29;;;;;;;2.55;0.75;;;3.90;99.90;;;;;;4862096;29;20146;-84
2021/01/24 09:36:55;;;;;;;3.63;1.20;;;3.90;99.90;;;;;;4862854;29;20064;-84
2021/01/24 09:39:21;;;;;;;4.05;1.02;;;4.00;99.90;;;;;;4863962;29;20503;-84
2021/01/24 09:41:47;;;;;;;5.75;0.90;;;4.00;99.90;;;;;;4861291;29;20121;-84
2021/01/24 09:44:13;;;;;;;2.00;1.05;;;4.00;99.90;;;;;;4865710;29;20061;-85
2021/01/24 09:46:38;;;;;;;1.73;1.38;;;4.10;99.90;;;;;;4863376;29;20081;-84
2021/01/24 09:49:04;;;;;;;6.40;1.02;;;4.20;99.90;;;;;;4862215;29;20045;-84
2021/01/24 09:51:30;;;;;;;5.93;1.00;;;4.30;99.90;;;;;;4863375;29;20474;-85
2021/01/24 09:53:58;;;;;;;3.25;1.20;;;4.30;99.90;;;;;;4862140;29;20098;-84
2021/01/24 09:56:25;;;;;;;5.85;1.85;;;4.30;99.90;;;;;;4863497;29;20092;-86
2021/01/24 09:58:55;;;;;;;3.97;0.90;;;4.40;99.90;;;;;;4846441;29;20037;-85
2021/01/24 10:01:21;;;;;;;1.73;0.90;;;4.40;99.90;;;;;;4861835;29;20045;-85
2021/01/24 10:03:48;;;;;;;2.33;0.80;;;4.50;99.90;;;;;;4861848;29;20038;-86
2021/01/24 10:06:15;;;;;;;7.65;1.10;;;4.60;99.90;;;;;;4864636;29;20483;-85
2021/01/24 10:08:41;;;;;;;3.13;1.10;;;4.70;99.90;;;;;;4862585;29;20033;-86
2021/01/24 10:11:08;;;;;;;1.65;0.93;;;4.80;99.90;;;;;;4859907;29;20077;-85
2021/01/24 10:13:33;;;;;;;4.38;0.98;;;4.90;99.90;;;;;;4863573;29;20070;-85
2021/01/24 10:15:59;;;;;;;2.60;1.00;;;4.90;99.90;;;;;;4862994;29;20050;-85
2021/01/24 10:18:25;;;;;;;3.85;1.38;;;5.00;99.90;;;;;;4865460;29;20029;-85
2021/01/24 10:20:51;;;;;;;1.10;0.90;;;5.00;99.90;;;;;;4862649;29;20113;-85
2021/01/24 10:23:21;;;;;;;3.35;2.10;;;5.00;99.90;;;;;;4862614;29;20029;-84
2021/01/24 10:25:50;;;;;;;2.17;1.38;;;5.10;99.90;;;;;;4862816;29;20463;-84
2021/01/24 10:28:17;;;;;;;3.35;1.05;;;5.20;99.90;;;;;;4862243;29;20423;-84
2021/01/24 10:30:43;;;;;;;7.53;2.92;;;5.20;99.90;;;;;;4865003;29;20037;-86
2021/01/24 10:33:10;;;;;;;5.30;1.35;;;5.30;99.90;;;;;;4864569;29;20048;-86
2021/01/24 10:35:36;;;;;;;2.13;1.10;;;5.40;99.90;;;;;;4868774;29;20132;-83
2021/01/24 10:38:02;;;;;;;8.52;1.80;;;5.50;99.90;;;;;;4848609;29;20096;-80
2021/01/24 10:40:28;;;;;;;1.77;1.23;;;5.60;99.90;;;;;;4863689;29;20036;-84
2021/01/24 10:42:53;;;;;;;6.38;1.98;;;5.80;99.90;;;;;;4861983;29;20029;-80
2021/01/24 10:45:19;;;;;;;4.63;1.70;;;6.10;99.90;;;;;;4859991;29;20117;-79
2021/01/24 10:47:45;;;;;;;3.13;1.60;;;6.30;99.90;;;;;;4860022;29;20037;-77
2021/01/24 10:50:11;;;;;;;9.07;1.77;;;6.50;99.90;;;;;;4843523;29;20030;-78
2021/01/24 10:52:37;;;;;;;3.90;1.52;;;6.50;99.90;;;;;;4859866;29;20029;-76
2021/01/24 10:55:03;;;;;;;5.55;1.90;;;6.60;99.90;;;;;;4859137;29;20030;-76
2021/01/24 10:57:29;;;;;;;1.92;1.65;;;6.60;99.90;;;;;;4861029;29;20029;-79
2021/01/24 10:59:54;;;;;;;4.03;1.92;;;6.70;99.90;;;;;;4860177;29;20170;-79
2021/01/24 11:02:20;;;;;;;8.13;2.00;;;6.70;99.90;;;;;;4861337;29;20021;-82
2021/01/24 11:04:46;;;;;;;12.13;2.08;;;6.80;99.90;;;;;;4859663;29;20034;-81
2021/01/24 11:07:11;;;;;;;2.42;1.90;;;6.80;99.90;;;;;;4860982;29;20033;-83
2021/01/24 11:09:37;;;;;;;7.07;1.95;;;6.70;99.90;;;;;;4845540;29;20390;-81
2021/01/24 11:12:03;;;;;;;6.40;2.13;;;6.70;99.90;;;;;;4845570;29;20036;-84
2021/01/24 11:14:28;;;;;;;8.07;2.65;;;6.50;99.90;;;;;;4863427;29;20482;-84
2021/01/24 11:16:54;;;;;;;12.32;2.72;;;6.60;99.90;;;;;;4861741;29;20029;-84
2021/01/24 11:19:20;;;;;;;6.95;3.15;;;6.60;99.90;;;;;;4860795;29;20474;-78
2021/01/24 11:21:46;;;;;;;5.95;2.80;;;6.50;99.90;;;;;;4861680;29;20049;-83
2021/01/24 11:24:12;;;;;;;8.65;2.88;;;6.30;99.90;;;;;;4856172;29;20463;-83
2021/01/24 11:26:37;;;;;;;13.25;3.20;;;6.30;99.90;;;;;;4844548;29;20022;-85
2021/01/24 11:29:03;;;;;;;10.23;4.00;;;6.20;99.90;;;;;;4860894;29;20118;-86
2021/01/24 11:31:31;;;;;;;7.30;4.07;;;6.00;99.90;;;;;;4863208;29;20488;-83
2021/01/24 11:33:56;;;;;;;8.03;3.17;;;6.10;99.90;;;;;;4858985;29;20093;-83
2021/01/24 11:36:22;;;;;;;9.43;3.53;;;6.20;99.90;;;;;;4851761;29;20109;-82
2021/01/24 11:38:48;;;;;;;14.90;2.92;;;6.30;99.90;;;;;;4860407;29;20427;-81
2021/01/24 11:41:14;;;;;;;5.55;2.53;;;6.40;99.90;;;;;;4864148;29;20486;-81
2021/01/24 11:43:39;;;;;;;6.30;2.70;;;6.30;99.90;;;;;;4863640;29;20093;-82
2021/01/24 11:46:05;;;;;;;13.07;3.42;;;6.10;99.90;;;;;;4863946;29;20383;-81
2021/01/24 11:48:30;;;;;;;10.48;2.92;;;6.20;99.90;;;;;;4863821;29;20052;-84
2021/01/24 11:50:56;;;;;;;11.38;3.17;;;6.20;99.90;;;;;;4864108;29;20101;-83
2021/01/24 11:53:22;;;;;;;8.10;3.80;;;6.40;99.90;;;;;;4862325;29;20033;-82
2021/01/24 11:55:52;;;;;;;8.40;3.90;;;6.40;99.90;;;;;;4864710;29;20034;-84
2021/01/24 11:58:21;;;;;;;15.07;3.25;;;6.60;99.90;;;;;;4864780;29;20112;-82
2021/01/24 12:00:47;;;;;;;6.22;2.97;;;6.80;99.90;;;;;;4852703;29;20051;-84
2021/01/24 12:03:13;;;;;;;7.65;3.22;;;7.00;99.90;;;;;;4845457;29;20038;-84
2021/01/24 12:05:39;;;;;;;8.30;3.17;;;7.00;99.90;;;;;;4842740;29;20045;-84
2021/01/24 12:08:05;;;;;;;10.30;2.70;;;7.10;99.90;;;;;;4826722;29;20399;-84
2021/01/24 12:10:31;;;;;;;7.32;2.60;;;6.90;99.90;;;;;;4832022;29;20042;-84
2021/01/24 12:12:57;;;;;;;10.38;2.78;;;6.90;99.90;;;;;;4841532;29;20388;-82
2021/01/24 12:15:23;;;;;;;11.05;2.92;;;6.90;99.90;;;;;;4824004;29;20174;-84
2021/01/24 12:17:48;;;;;;;11.27;4.05;;;6.90;99.90;;;;;;4825215;29;20043;-82
2021/01/24 12:20:14;;;;;;;4.47;2.50;;;6.90;99.90;;;;;;4826388;29;20027;-84
2021/01/24 12:22:40;;;;;;;6.13;2.58;;;7.00;99.90;;;;;;4826181;29;20360;-84
2021/01/24 12:25:07;;;;;;;7.05;2.67;;;7.00;99.90;;;;;;4840705;29;20036;-83
2021/01/24 12:27:33;;;;;;;9.65;3.30;;;7.10;99.90;;;;;;4840561;29;20065;-82
2021/01/24 12:29:58;;;;;;;7.85;2.33;;;7.20;99.90;;;;;;4840626;29;20031;-81
2021/01/24 12:32:24;;;;;;;6.82;2.63;;;7.20;99.90;;;;;;4834861;29;20047;-83
2021/01/24 12:34:50;;;;;;;5.95;2.45;;;7.30;99.90;;;;;;4826371;29;20038;-82
2021/01/24 12:37:15;;;;;;;7.57;1.98;;;7.50;99.90;;;;;;4820396;29;20022;-83
2021/01/24 12:39:41;;;;;;;8.98;2.25;;;7.60;99.90;;;;;;4827536;29;20069;-84
2021/01/24 12:42:06;;;;;;;5.53;2.83;;;7.70;99.90;;;;;;4826147;29;20079;-82
2021/01/24 12:44:32;;;;;;;7.82;2.60;;;7.60;99.90;;;;;;4827227;29;20030;-84
2021/01/24 12:46:58;;;;;;;4.20;2.08;;;7.60;99.90;;;;;;4826871;29;20535;-85
2021/01/24 12:49:23;;;;;;;7.03;2.92;;;7.60;99.90;;;;;;4841051;29;20400;-83
2021/01/24 12:51:49;;;;;;;7.00;2.03;;;7.60;99.90;;;;;;4824902;29;20034;-83
2021/01/24 12:54:15;;;;;;;8.98;2.20;;;7.50;99.90;;;;;;4825910;29;20404;-82
2021/01/24 12:56:40;;;;;;;4.32;1.90;;;7.20;99.90;;;;;;4839939;29;20102;-82
2021/01/24 12:59:06;;;;;;;2.33;1.60;;;7.10;99.90;;;;;;4826320;29;20088;-81